createdAt,value
2019-05-30T00:00:05.679Z,6.60
2019-05-30T00:02:20.170Z,6.60
2019-05-30T00:04:46.928Z,6.50
2019-05-30T00:07:13.639Z,6.60
2019-05-30T00:09:41.499Z,6.50
2019-05-30T00:12:08.240Z,6.50
2019-05-30T00:14:34.970Z,6.40
2019-05-30T00:17:02.923Z,6.40
2019-05-30T00:19:33.667Z,6.40
2019-05-30T00:21:58.653Z,6.30
2019-05-30T00:24:25.601Z,6.30
2019-05-30T00:26:52.354Z,6.30
2019-05-30T00:29:19.080Z,6.20
2019-05-30T00:31:45.983Z,6.20
2019-05-30T00:34:12.704Z,6.30
2019-05-30T00:36:39.440Z,6.30
2019-05-30T00:39:06.819Z,6.20
2019-05-30T00:41:33.664Z,6.10
2019-05-30T00:44:00.396Z,6.10
2019-05-30T00:46:27.299Z,6.20
2019-05-30T00:48:54.035Z,6.10
2019-05-30T00:51:20.751Z,6.00
2019-05-30T00:53:47.669Z,6.00
2019-05-30T00:56:14.377Z,6.00
2019-05-30T00:58:41.103Z,5.90
2019-05-30T01:01:07.969Z,6.00
2019-05-30T01:03:34.716Z,5.90
2019-05-30T01:06:01.420Z,5.90
2019-05-30T01:08:28.269Z,5.90
2019-05-30T01:10:55.055Z,5.90
2019-05-30T01:13:21.778Z,5.90
2019-05-30T01:15:49.273Z,6.00
2019-05-30T01:18:15.979Z,5.90
2019-05-30T01:20:43.840Z,5.90
2019-05-30T01:23:10.719Z,5.90
2019-05-30T01:25:37.468Z,6.00
2019-05-30T01:28:05.552Z,6.00
2019-05-30T01:30:32.781Z,5.90
2019-05-30T01:32:59.692Z,5.90
2019-05-30T01:35:26.515Z,5.90
2019-05-30T01:37:53.299Z,5.90
2019-05-30T01:40:20.050Z,5.80
2019-05-30T01:42:46.777Z,5.80
2019-05-30T01:45:15.582Z,5.80
2019-05-30T01:47:42.272Z,5.70
2019-05-30T01:50:09.897Z,5.70
2019-05-30T01:52:36.992Z,5.70
2019-05-30T01:55:08.855Z,5.70
2019-05-30T01:57:36.371Z,5.70
2019-05-30T02:00:20.873Z,5.70
2019-05-30T02:02:42.491Z,5.70
2019-05-30T02:05:09.944Z,5.70
2019-05-30T02:07:36.718Z,5.80
2019-05-30T02:10:10.074Z,5.80
2019-05-30T02:12:36.928Z,5.80
2019-05-30T02:15:07.649Z,5.90
2019-05-30T02:17:34.714Z,5.70
2019-05-30T02:20:01.901Z,5.80
2019-05-30T02:22:28.808Z,5.70
2019-05-30T02:24:55.539Z,5.70
2019-05-30T02:27:22.249Z,5.70
2019-05-30T02:29:49.163Z,5.70
2019-05-30T02:32:15.908Z,5.60
2019-05-30T02:34:42.637Z,5.60
2019-05-30T02:37:10.757Z,5.60
2019-05-30T02:39:38.050Z,5.70
2019-05-30T02:42:05.250Z,5.60
2019-05-30T02:44:32.522Z,5.60
2019-05-30T02:47:01.272Z,5.60
2019-05-30T02:49:27.761Z,5.60
2019-05-30T02:51:54.776Z,5.60
2019-05-30T02:54:21.568Z,5.60
2019-05-30T02:56:48.309Z,5.60
2019-05-30T02:59:15.204Z,5.50
2019-05-30T03:01:59.029Z,5.60
2019-05-30T03:04:12.731Z,5.50
2019-05-30T03:06:39.570Z,5.40
2019-05-30T03:09:08.374Z,5.30
2019-05-30T03:11:35.498Z,5.30
2019-05-30T03:14:04.474Z,5.30
2019-05-30T03:16:31.604Z,5.40
2019-05-30T03:18:58.671Z,5.40
2019-05-30T03:21:25.592Z,5.30
2019-05-30T03:23:52.431Z,5.30
2019-05-30T03:26:19.301Z,5.30
2019-05-30T03:28:46.235Z,5.30
2019-05-30T03:31:26.651Z,5.40
2019-05-30T03:33:44.879Z,5.40
2019-05-30T03:36:24.129Z,5.40
2019-05-30T03:38:40.490Z,5.40
2019-05-30T03:41:09.086Z,5.50
2019-05-30T03:43:36.916Z,5.50
2019-05-30T03:46:10.578Z,5.40
2019-05-30T03:48:41.789Z,5.50
2019-05-30T03:51:14.911Z,5.50
2019-05-30T03:53:41.975Z,5.50
2019-05-30T03:56:20.275Z,5.50
2019-05-30T03:59:08.081Z,5.40
2019-05-30T04:01:41.013Z,5.50
2019-05-30T04:04:25.471Z,5.40
2019-05-30T04:07:00.341Z,5.40
2019-05-30T04:09:30.202Z,5.50
2019-05-30T04:12:29.867Z,5.40
2019-05-30T04:15:09.930Z,5.40
2019-05-30T04:17:36.751Z,5.40
2019-05-30T04:20:07.133Z,5.40
2019-05-30T04:22:34.034Z,5.50
2019-05-30T04:25:00.976Z,5.50
2019-05-30T04:27:27.720Z,5.50
2019-05-30T04:29:54.493Z,5.50
2019-05-30T04:32:21.306Z,5.50
2019-05-30T04:34:48.050Z,5.50
2019-05-30T04:37:14.976Z,5.50
2019-05-30T04:39:42.438Z,5.60
2019-05-30T04:42:09.406Z,5.60
2019-05-30T04:44:37.774Z,5.60
2019-05-30T04:47:04.669Z,5.50
2019-05-30T04:49:31.440Z,5.60
2019-05-30T04:51:58.199Z,5.60
2019-05-30T04:54:25.097Z,5.70
2019-05-30T04:56:51.882Z,5.70
2019-05-30T04:59:19.830Z,5.70
2019-05-30T05:01:52.854Z,5.80
2019-05-30T05:04:19.656Z,5.90
2019-05-30T05:06:46.386Z,5.80
2019-05-30T05:09:17.993Z,5.80
2019-05-30T05:11:44.996Z,5.90
2019-05-30T05:14:12.327Z,5.90
2019-05-30T05:16:39.410Z,6.00
2019-05-30T05:19:06.173Z,6.10
2019-05-30T05:21:34.793Z,6.20
2019-05-30T05:24:02.156Z,6.20
2019-05-30T05:26:31.447Z,6.30
2019-05-30T05:29:01.566Z,6.40
2019-05-30T05:31:30.414Z,6.40
2019-05-30T05:33:57.522Z,6.50
2019-05-30T05:36:25.225Z,6.60
2019-05-30T05:38:52.223Z,6.70
2019-05-30T05:41:20.164Z,6.80
2019-05-30T05:43:46.931Z,6.80
2019-05-30T05:46:13.812Z,6.90
2019-05-30T05:48:40.558Z,7.00
2019-05-30T05:51:07.296Z,7.10
2019-05-30T05:53:34.177Z,7.20
2019-05-30T05:56:00.927Z,7.30
2019-05-30T05:58:47.543Z,7.40
2019-05-30T06:01:14.263Z,7.50
2019-05-30T06:03:40.994Z,7.60
2019-05-30T06:06:07.853Z,7.70
2019-05-30T06:08:34.601Z,7.80
2019-05-30T06:11:01.352Z,7.80
2019-05-30T06:13:29.060Z,7.90
2019-05-30T06:15:57.799Z,8.00
2019-05-30T06:18:24.544Z,8.10
2019-05-30T06:20:51.443Z,8.10
2019-05-30T06:23:19.418Z,8.30
2019-05-30T06:25:46.208Z,8.30
2019-05-30T06:28:13.082Z,8.40
2019-05-30T06:30:39.820Z,8.40
2019-05-30T06:33:06.579Z,8.50
2019-05-30T06:35:33.469Z,8.60
2019-05-30T06:38:00.179Z,8.70
2019-05-30T06:40:30.368Z,8.80
2019-05-30T06:42:55.673Z,8.80
2019-05-30T06:45:25.611Z,8.80
2019-05-30T06:47:52.737Z,8.80
2019-05-30T06:50:20.602Z,8.80
2019-05-30T06:52:47.475Z,8.80
2019-05-30T06:55:14.318Z,8.90
2019-05-30T06:57:41.086Z,8.90
2019-05-30T07:00:08.229Z,9.00
2019-05-30T07:02:34.972Z,9.00
2019-05-30T07:05:03.024Z,9.00
2019-05-30T07:07:31.237Z,9.00
2019-05-30T07:09:58.149Z,9.10
2019-05-30T07:12:27.142Z,9.20
2019-05-30T07:14:53.614Z,9.40
2019-05-30T07:17:20.395Z,9.40
2019-05-30T07:19:47.317Z,9.50
2019-05-30T07:22:14.041Z,9.50
2019-05-30T07:24:40.799Z,9.60
2019-05-30T07:27:07.697Z,9.60
2019-05-30T07:29:34.451Z,9.60
2019-05-30T07:32:01.208Z,9.70
2019-05-30T07:34:28.203Z,9.70
2019-05-30T07:36:54.910Z,9.80
2019-05-30T07:39:21.660Z,9.90
2019-05-30T07:42:04.969Z,10.00
2019-05-30T07:44:17.121Z,10.10
2019-05-30T07:46:43.861Z,10.20
2019-05-30T07:49:10.752Z,10.30
2019-05-30T07:51:38.846Z,10.40
2019-05-30T07:54:05.765Z,10.40
2019-05-30T07:56:33.466Z,10.40
2019-05-30T07:59:00.279Z,10.40
2019-05-30T08:01:28.278Z,10.60
2019-05-30T08:03:55.213Z,10.60
2019-05-30T08:06:21.934Z,10.70
2019-05-30T08:08:48.669Z,10.80
2019-05-30T08:11:15.546Z,10.80
2019-05-30T08:13:42.270Z,10.80
2019-05-30T08:16:09.022Z,10.90
2019-05-30T08:18:35.970Z,10.90
2019-05-30T08:21:02.681Z,11.10
2019-05-30T08:23:30.094Z,11.40
2019-05-30T08:25:57.115Z,11.50
2019-05-30T08:28:23.834Z,11.60
2019-05-30T08:30:50.669Z,11.70
2019-05-30T08:33:17.557Z,11.80
2019-05-30T08:35:49.790Z,11.80
2019-05-30T08:38:12.817Z,11.90
2019-05-30T08:40:39.717Z,12.00
2019-05-30T08:43:06.473Z,12.00
2019-05-30T08:45:33.630Z,12.10
2019-05-30T08:48:00.660Z,12.10
2019-05-30T08:50:27.371Z,12.10
2019-05-30T08:52:54.116Z,12.00
2019-05-30T08:55:20.906Z,12.10
2019-05-30T08:57:50.152Z,12.10
2019-05-30T09:00:17.866Z,12.10
2019-05-30T09:02:45.151Z,12.10
2019-05-30T09:05:12.328Z,12.30
2019-05-30T09:07:40.187Z,12.40
2019-05-30T09:10:08.943Z,12.50
2019-05-30T09:12:36.429Z,12.50
2019-05-30T09:15:09.139Z,12.60
2019-05-30T09:17:35.955Z,12.60
2019-05-30T09:20:05.741Z,12.70
2019-05-30T09:22:32.461Z,12.90
2019-05-30T09:24:59.329Z,12.90
2019-05-30T09:27:26.071Z,13.00
2019-05-30T09:29:52.846Z,12.90
2019-05-30T09:32:19.814Z,12.90
2019-05-30T09:34:47.067Z,12.90
2019-05-30T09:37:13.817Z,13.00
2019-05-30T09:39:41.533Z,13.10
2019-05-30T09:42:08.422Z,13.20
2019-05-30T09:44:35.171Z,13.10
2019-05-30T09:47:02.050Z,13.10
2019-05-30T09:49:28.797Z,13.10
2019-05-30T09:51:55.522Z,13.10
2019-05-30T09:54:22.407Z,13.20
2019-05-30T09:56:49.117Z,13.20
2019-05-30T09:59:15.838Z,13.30
2019-05-30T10:01:44.214Z,13.40
2019-05-30T10:04:11.054Z,13.50
2019-05-30T10:06:37.767Z,13.60
2019-05-30T10:09:08.063Z,13.70
2019-05-30T10:11:34.791Z,13.80
2019-05-30T10:14:01.512Z,13.90
2019-05-30T10:16:28.472Z,14.00
2019-05-30T10:18:55.219Z,14.10
2019-05-30T10:21:22.012Z,14.10
2019-05-30T10:23:49.389Z,14.10
2019-05-30T10:26:16.338Z,14.20
2019-05-30T10:28:43.064Z,14.10
2019-05-30T10:31:09.989Z,14.10
2019-05-30T10:33:36.709Z,14.10
2019-05-30T10:36:03.701Z,14.20
2019-05-30T10:38:30.523Z,14.30
2019-05-30T10:40:57.271Z,14.40
2019-05-30T10:43:24.056Z,14.40
2019-05-30T10:45:51.232Z,14.50
2019-05-30T10:48:20.859Z,14.40
2019-05-30T10:50:48.575Z,14.40
2019-05-30T10:53:15.532Z,14.50
2019-05-30T10:55:42.260Z,14.60
2019-05-30T10:58:09.081Z,14.80
2019-05-30T11:00:53.869Z,15.00
2019-05-30T11:03:24.266Z,15.10
2019-05-30T11:06:17.860Z,15.20
2019-05-30T11:08:47.915Z,15.40
2019-05-30T11:11:15.715Z,15.40
2019-05-30T11:13:42.579Z,15.50
2019-05-30T11:16:09.315Z,15.40
2019-05-30T11:18:36.134Z,15.60
2019-05-30T11:21:03.306Z,15.80
2019-05-30T11:23:30.044Z,16.10
2019-05-30T11:25:56.796Z,16.00
2019-05-30T11:28:23.640Z,15.90
2019-05-30T11:30:50.666Z,15.80
2019-05-30T11:33:17.522Z,15.70
2019-05-30T11:35:44.481Z,15.70
2019-05-30T11:38:11.118Z,15.90
2019-05-30T11:40:38.966Z,15.90
2019-05-30T11:43:05.785Z,16.00
2019-05-30T11:45:42.867Z,15.90
2019-05-30T11:48:12.787Z,15.80
2019-05-30T11:50:39.500Z,15.70
2019-05-30T11:53:06.224Z,15.60
2019-05-30T11:55:33.124Z,15.60
2019-05-30T11:58:00.408Z,15.60
2019-05-30T12:00:27.811Z,15.50
2019-05-30T12:02:54.696Z,15.50
2019-05-30T12:05:21.953Z,15.50
2019-05-30T12:07:48.689Z,15.60
2019-05-30T12:10:17.500Z,15.70
2019-05-30T12:12:44.246Z,15.60
2019-05-30T12:15:11.687Z,15.50
2019-05-30T12:17:38.577Z,15.50
2019-05-30T12:20:06.347Z,15.40
2019-05-30T12:22:33.115Z,15.40
2019-05-30T12:25:00.429Z,15.40
2019-05-30T12:27:27.453Z,15.30
2019-05-30T12:29:56.217Z,15.30
2019-05-30T12:32:23.199Z,15.20
2019-05-30T12:34:49.943Z,15.20
2019-05-30T12:37:16.659Z,15.10
2019-05-30T12:39:43.529Z,15.00
2019-05-30T12:42:10.254Z,14.90
2019-05-30T12:44:37.020Z,14.90
2019-05-30T12:47:04.037Z,14.80
2019-05-30T12:49:30.752Z,14.80
2019-05-30T12:51:58.367Z,14.80
2019-05-30T12:54:25.338Z,14.70
2019-05-30T12:56:52.066Z,14.70
2019-05-30T12:59:18.775Z,14.70
2019-05-30T13:01:45.629Z,14.70
2019-05-30T13:04:12.576Z,14.70
2019-05-30T13:06:39.313Z,14.70
2019-05-30T13:09:08.406Z,14.70
2019-05-30T13:11:36.535Z,14.70
2019-05-30T13:14:04.672Z,14.70
2019-05-30T13:16:31.650Z,14.80
2019-05-30T13:18:58.389Z,14.80
2019-05-30T13:21:28.273Z,14.70
2019-05-30T13:23:55.536Z,14.70
2019-05-30T13:26:22.357Z,14.80
2019-05-30T13:28:49.096Z,14.80
2019-05-30T13:31:15.968Z,14.70
2019-05-30T13:33:42.693Z,14.70
2019-05-30T13:36:09.409Z,14.60
2019-05-30T13:38:36.264Z,14.60
2019-05-30T13:41:03.594Z,14.60
2019-05-30T13:43:30.421Z,14.70
2019-05-30T13:45:58.123Z,14.70
2019-05-30T13:48:24.902Z,14.70
2019-05-30T13:50:51.621Z,14.70
2019-05-30T13:53:18.495Z,14.60
2019-05-30T13:55:45.219Z,14.60
2019-05-30T13:58:11.943Z,14.60
2019-05-30T14:00:39.274Z,14.60
2019-05-30T14:03:06.280Z,14.60
2019-05-30T14:05:33.116Z,14.70
2019-05-30T14:08:00.261Z,14.70
2019-05-30T14:10:26.985Z,14.60
2019-05-30T14:12:53.730Z,14.70
2019-05-30T14:15:20.922Z,14.70
2019-05-30T14:17:47.640Z,14.70
2019-05-30T14:20:16.070Z,14.80
2019-05-30T14:22:42.944Z,14.90
2019-05-30T14:25:11.936Z,14.90
2019-05-30T14:27:38.732Z,14.90
2019-05-30T14:30:08.967Z,15.00
2019-05-30T14:32:35.972Z,15.10
2019-05-30T14:35:08.470Z,15.20
2019-05-30T14:37:35.495Z,15.20
2019-05-30T14:40:08.813Z,15.20
2019-05-30T14:42:35.585Z,15.10
2019-05-30T14:45:08.393Z,15.10
2019-05-30T14:47:35.363Z,15.10
2019-05-30T14:50:08.764Z,15.20
2019-05-30T14:52:36.058Z,15.60
2019-05-30T14:55:06.738Z,16.30
2019-05-30T14:57:33.390Z,16.70
2019-05-30T15:00:00.302Z,17.10
2019-05-30T15:02:27.007Z,17.40
2019-05-30T15:04:53.757Z,17.30
2019-05-30T15:07:20.653Z,17.40
2019-05-30T15:09:47.413Z,17.80
2019-05-30T15:12:14.131Z,18.10
2019-05-30T15:14:41.042Z,18.20
2019-05-30T15:17:07.973Z,17.80
2019-05-30T15:19:34.835Z,17.50
2019-05-30T15:22:01.710Z,17.10
2019-05-30T15:24:28.507Z,16.90
2019-05-30T15:26:55.239Z,17.10
2019-05-30T15:29:22.117Z,17.50
2019-05-30T15:31:48.832Z,17.90
2019-05-30T15:34:16.736Z,17.60
2019-05-30T15:36:43.731Z,17.40
2019-05-30T15:39:10.893Z,17.20
2019-05-30T15:41:37.684Z,17.00
2019-05-30T15:44:04.578Z,16.70
2019-05-30T15:46:31.328Z,16.40
2019-05-30T15:48:58.480Z,15.90
2019-05-30T15:51:25.372Z,16.00
2019-05-30T15:53:52.170Z,16.00
2019-05-30T15:56:19.446Z,16.00
2019-05-30T15:58:46.591Z,15.80
2019-05-30T16:01:13.916Z,15.70
2019-05-30T16:03:40.843Z,15.80
2019-05-30T16:06:07.662Z,15.80
2019-05-30T16:08:34.373Z,15.70
2019-05-30T16:11:01.122Z,15.70
2019-05-30T16:13:28.022Z,15.60
2019-05-30T16:15:54.817Z,15.40
2019-05-30T16:18:22.057Z,15.40
2019-05-30T16:20:49.152Z,15.50
2019-05-30T16:23:16.570Z,15.50
2019-05-30T16:25:43.499Z,15.50
2019-05-30T16:28:10.546Z,15.40
2019-05-30T16:30:38.692Z,15.40
2019-05-30T16:33:05.514Z,15.40
2019-05-30T16:35:32.614Z,15.30
2019-05-30T16:37:59.374Z,15.30
2019-05-30T16:40:26.693Z,15.20
2019-05-30T16:42:53.758Z,15.10
2019-05-30T16:45:24.688Z,15.00
2019-05-30T16:47:49.447Z,15.00
2019-05-30T16:50:20.663Z,15.00
2019-05-30T16:52:47.420Z,15.00
2019-05-30T16:55:15.178Z,14.90
2019-05-30T16:57:42.335Z,14.80
2019-05-30T17:00:12.250Z,14.70
2019-05-30T17:02:38.968Z,14.60
2019-05-30T17:05:08.502Z,14.60
2019-05-30T17:07:35.591Z,14.30
2019-05-30T17:10:21.541Z,14.20
2019-05-30T17:12:35.564Z,14.10
2019-05-30T17:15:08.538Z,14.20
2019-05-30T17:17:35.257Z,14.20
2019-05-30T17:20:05.555Z,14.30
2019-05-30T17:22:32.303Z,14.20
2019-05-30T17:24:59.034Z,14.20
2019-05-30T17:27:26.145Z,14.00
2019-05-30T17:29:53.175Z,13.90
2019-05-30T17:32:19.895Z,13.90
2019-05-30T17:34:46.782Z,13.80
2019-05-30T17:37:13.897Z,13.70
2019-05-30T17:39:40.652Z,13.70
2019-05-30T17:42:07.449Z,13.50
2019-05-30T17:44:36.467Z,13.50
2019-05-30T17:47:03.350Z,13.40
2019-05-30T17:49:30.507Z,13.30
2019-05-30T17:51:57.614Z,13.30
2019-05-30T17:54:25.899Z,13.30
2019-05-30T17:56:52.982Z,13.20
2019-05-30T17:59:20.166Z,13.20
2019-05-30T18:01:46.995Z,13.00
2019-05-30T18:04:13.938Z,13.10
2019-05-30T18:06:40.662Z,13.10
2019-05-30T18:09:07.374Z,13.10
2019-05-30T18:11:34.264Z,13.10
2019-05-30T18:14:03.185Z,12.90
2019-05-30T18:16:29.898Z,13.00
2019-05-30T18:18:56.836Z,13.00
2019-05-30T18:21:23.639Z,12.90
2019-05-30T18:23:50.325Z,12.90
2019-05-30T18:26:17.212Z,12.90
2019-05-30T18:28:44.972Z,12.80
2019-05-30T18:31:11.923Z,12.80
2019-05-30T18:33:38.867Z,12.80
2019-05-30T18:36:05.613Z,12.60
2019-05-30T18:38:32.626Z,12.50
2019-05-30T18:41:10.740Z,12.40
2019-05-30T18:43:28.824Z,12.50
2019-05-30T18:45:55.569Z,12.40
2019-05-30T18:48:23.276Z,12.40
2019-05-30T18:50:50.190Z,12.30
2019-05-30T18:53:16.945Z,12.20
2019-05-30T18:55:44.148Z,12.00
2019-05-30T18:58:11.701Z,11.90
2019-05-30T19:00:38.571Z,11.80
2019-05-30T19:03:05.366Z,11.60
2019-05-30T19:05:32.682Z,11.60
2019-05-30T19:07:59.428Z,11.60
2019-05-30T19:10:27.817Z,11.40
2019-05-30T19:12:54.615Z,11.20
2019-05-30T19:15:21.350Z,11.10
2019-05-30T19:17:48.231Z,11.10
2019-05-30T19:20:17.149Z,11.10
2019-05-30T19:22:43.874Z,11.10
2019-05-30T19:25:11.079Z,10.90
2019-05-30T19:27:38.965Z,10.90
2019-05-30T19:30:09.233Z,10.80
2019-05-30T19:32:36.953Z,10.70
2019-05-30T19:35:09.477Z,10.70
2019-05-30T19:37:37.432Z,10.50
2019-05-30T19:40:05.488Z,10.40
2019-05-30T19:42:33.439Z,10.30
2019-05-30T19:45:00.265Z,10.30
2019-05-30T19:47:28.555Z,10.20
2019-05-30T19:49:55.421Z,10.00
2019-05-30T19:52:22.157Z,9.90
2019-05-30T19:54:49.071Z,9.90
2019-05-30T19:57:15.810Z,9.90
2019-05-30T19:59:42.533Z,9.80
2019-05-30T20:02:09.437Z,9.70
2019-05-30T20:04:36.409Z,9.60
2019-05-30T20:07:03.321Z,9.50
2019-05-30T20:09:30.466Z,9.50
2019-05-30T20:12:03.349Z,9.40
2019-05-30T20:14:26.250Z,9.30
2019-05-30T20:16:53.108Z,9.30
2019-05-30T20:19:19.815Z,9.10
2019-05-30T20:21:46.551Z,9.10
2019-05-30T20:24:13.415Z,9.10
2019-05-30T20:26:40.662Z,8.90
2019-05-30T20:29:07.470Z,8.80
2019-05-30T20:31:35.523Z,8.70
2019-05-30T20:34:02.423Z,8.70
2019-05-30T20:36:29.176Z,8.60
2019-05-30T20:38:56.032Z,8.60
2019-05-30T20:41:22.772Z,8.50
2019-05-30T20:43:49.496Z,8.50
2019-05-30T20:46:23.132Z,8.50
2019-05-30T20:48:45.105Z,8.50
2019-05-30T20:51:20.703Z,8.40
2019-05-30T20:53:41.249Z,8.40
2019-05-30T20:56:08.067Z,8.40
2019-05-30T20:58:35.498Z,8.30
2019-05-30T21:01:02.517Z,8.30
2019-05-30T21:03:29.272Z,8.30
2019-05-30T21:06:16.516Z,8.20
2019-05-30T21:08:44.951Z,8.10
2019-05-30T21:11:11.775Z,8.00
2019-05-30T21:13:40.192Z,8.00
2019-05-30T21:16:09.054Z,7.80
2019-05-30T21:18:35.774Z,7.70
2019-05-30T21:21:02.737Z,7.70
2019-05-30T21:23:29.499Z,7.70
2019-05-30T21:25:56.223Z,7.60
2019-05-30T21:28:23.113Z,7.60
2019-05-30T21:30:49.926Z,7.50
2019-05-30T21:33:16.656Z,7.40
2019-05-30T21:35:43.852Z,7.50
2019-05-30T21:38:10.658Z,7.40
2019-05-30T21:40:38.162Z,7.40
2019-05-30T21:43:07.216Z,7.30
2019-05-30T21:45:33.773Z,7.30
2019-05-30T21:48:00.489Z,7.30
2019-05-30T21:50:27.377Z,7.20
2019-05-30T21:52:54.099Z,7.20
2019-05-30T21:55:20.836Z,7.10
2019-05-30T21:57:48.189Z,7.00
2019-05-30T22:00:38.047Z,7.00
2019-05-30T22:03:04.925Z,7.10
2019-05-30T22:05:31.642Z,7.00
2019-05-30T22:07:58.371Z,6.80
2019-05-30T22:10:25.171Z,6.70
2019-05-30T22:12:51.933Z,6.70
2019-05-30T22:15:18.586Z,6.70
2019-05-30T22:17:45.763Z,6.70
2019-05-30T22:20:12.929Z,6.60
2019-05-30T22:22:39.664Z,6.60
2019-05-30T22:25:06.544Z,6.50
2019-05-30T22:27:34.571Z,6.50
2019-05-30T22:30:01.277Z,6.40
2019-05-30T22:32:28.162Z,6.40
2019-05-30T22:34:54.863Z,6.40
2019-05-30T22:37:21.581Z,6.40
2019-05-30T22:39:48.938Z,6.30
2019-05-30T22:42:15.790Z,6.30
2019-05-30T22:44:42.529Z,6.20
2019-05-30T22:47:09.395Z,6.30
2019-05-30T22:49:36.138Z,6.40
2019-05-30T22:52:03.075Z,6.30
2019-05-30T22:54:29.955Z,6.30
2019-05-30T22:56:56.679Z,6.20
2019-05-30T22:59:23.440Z,6.20
2019-05-30T23:01:51.940Z,6.10
2019-05-30T23:04:18.982Z,6.00
2019-05-30T23:06:46.256Z,6.10
2019-05-30T23:09:13.204Z,6.00
2019-05-30T23:11:39.918Z,6.00
2019-05-30T23:14:06.658Z,5.90
2019-05-30T23:16:33.549Z,6.00
2019-05-30T23:19:00.270Z,5.90
2019-05-30T23:21:27.018Z,5.80
2019-05-30T23:23:53.823Z,5.70
2019-05-30T23:26:20.569Z,5.80
2019-05-30T23:28:47.510Z,5.70
2019-05-30T23:31:14.591Z,5.70
2019-05-30T23:33:41.366Z,5.50
2019-05-30T23:36:08.102Z,5.50
2019-05-30T23:38:34.997Z,5.40
2019-05-30T23:41:01.721Z,5.40
2019-05-30T23:43:28.453Z,5.50
2019-05-30T23:45:55.749Z,5.40
2019-05-30T23:48:22.660Z,5.30
2019-05-30T23:50:49.743Z,5.30
2019-05-30T23:53:16.689Z,5.30
2019-05-30T23:55:43.404Z,5.30
2019-05-30T23:58:10.136Z,5.30
